Terminal Aerodrome Forecast
Issued by NWS Caribou, ME

Home | Current Version | Previous Version | Text Only | Print | Product List | Glossary On
Versions: 1 2 3 4 5 6 7 8 9 10 11 12 13 14 15 16
000
FTUS41 KCAR 221120
TAFBGR
TAF
KBGR 221120Z 2212/2312 18007KT P6SM SCT250
     FM222300 19008KT P6SM VCSH BKN060
     FM230200 18010KT 3SM -SHRA BR VCTS OVC020CB
     FM230600 19007KT 1 1/2SM -SHRA BR OVC005=

USA.gov is the U.S. government's official web portal to all federal, state and local government web resources and services.